createdAt,value
2018-08-24T00:02:10.630Z,59.14
2018-08-24T00:04:39.778Z,59.29
2018-08-24T00:07:08.911Z,58.82
2018-08-24T00:09:38.305Z,60.15
2018-08-24T00:12:07.453Z,59.36
2018-08-24T00:14:36.457Z,59.07
2018-08-24T00:17:09.702Z,59.55
2018-08-24T00:19:38.806Z,59.67
2018-08-24T00:22:07.882Z,59.24
2018-08-24T00:24:36.929Z,59.87
2018-08-24T00:27:06.174Z,60.42
2018-08-24T00:29:35.201Z,59.73
2018-08-24T00:32:04.221Z,62.19
2018-08-24T00:34:33.202Z,60.03
2018-08-24T00:37:02.178Z,60.34
2018-08-24T00:39:31.085Z,59.49
2018-08-24T00:42:00.196Z,59.24
2018-08-24T00:44:29.134Z,59.30
2018-08-24T00:46:58.153Z,59.50
2018-08-24T00:49:27.089Z,58.84
2018-08-24T00:51:56.042Z,58.75
2018-08-24T00:54:25.071Z,59.03
2018-08-24T00:56:54.075Z,58.74
2018-08-24T00:59:23.021Z,59.18
2018-08-24T01:01:52.158Z,59.29
2018-08-24T01:04:26.202Z,61.81
2018-08-24T01:06:55.317Z,61.60
2018-08-24T01:09:24.252Z,60.71
2018-08-24T01:11:58.517Z,61.50
2018-08-24T01:14:27.444Z,60.73
2018-08-24T01:17:01.526Z,63.45
2018-08-24T01:19:30.555Z,63.50
2018-08-24T01:21:59.509Z,63.92
2018-08-24T01:24:31.181Z,61.55
2018-08-24T01:27:04.170Z,61.06
2018-08-24T01:29:35.141Z,61.26
2018-08-24T01:32:04.289Z,61.31
2018-08-24T01:34:33.878Z,61.07
2018-08-24T01:37:02.999Z,60.60
2018-08-24T01:39:32.231Z,60.57
2018-08-24T01:42:01.183Z,60.28
2018-08-24T01:44:30.502Z,61.73
2018-08-24T01:46:59.430Z,60.53
2018-08-24T01:49:28.523Z,62.75
2018-08-24T01:51:57.437Z,60.76
2018-08-24T01:54:26.469Z,60.62
2018-08-24T01:56:55.492Z,60.86
2018-08-24T01:59:24.491Z,60.90
2018-08-24T02:01:53.526Z,61.48
2018-08-24T02:04:22.638Z,60.84
2018-08-24T02:06:51.622Z,60.06
2018-08-24T02:09:23.246Z,61.79
2018-08-24T02:11:52.394Z,61.55
2018-08-24T02:14:26.445Z,61.28
2018-08-24T02:16:55.451Z,60.96
2018-08-24T02:19:29.677Z,61.04
2018-08-24T02:22:03.774Z,60.95
2018-08-24T02:24:32.749Z,65.67
2018-08-24T02:27:01.716Z,63.29
2018-08-24T02:29:30.702Z,65.18
2018-08-24T02:31:59.749Z,63.86
2018-08-24T02:34:28.735Z,63.92
2018-08-24T02:36:57.694Z,64.84
2018-08-24T02:39:26.714Z,65.73
2018-08-24T02:41:55.699Z,64.06
2018-08-24T02:44:24.674Z,66.33
2018-08-24T02:46:53.636Z,65.14
2018-08-24T02:49:22.650Z,63.39
2018-08-24T02:51:51.599Z,64.76
2018-08-24T02:54:20.756Z,63.45
2018-08-24T02:56:49.721Z,62.90
2018-08-24T02:59:19.177Z,64.49
2018-08-24T03:01:48.089Z,63.83
2018-08-24T03:04:17.089Z,63.27
2018-08-24T03:06:46.017Z,62.91
2018-08-24T03:09:15.034Z,62.72
2018-08-24T03:11:44.063Z,62.98
2018-08-24T03:14:13.253Z,62.61
2018-08-24T03:16:46.236Z,62.77
2018-08-24T03:19:15.300Z,62.30
2018-08-24T03:21:44.298Z,61.74
2018-08-24T03:24:13.295Z,62.22
2018-08-24T03:26:42.394Z,62.79
2018-08-24T03:29:11.934Z,62.50
2018-08-24T03:31:40.850Z,62.61
2018-08-24T03:34:09.858Z,62.01
2018-08-24T03:36:38.847Z,62.37
2018-08-24T03:39:09.160Z,61.69
2018-08-24T03:41:38.171Z,62.99
2018-08-24T03:44:07.316Z,63.22
2018-08-24T03:46:36.655Z,62.23
2018-08-24T03:49:06.009Z,63.30
2018-08-24T03:51:35.308Z,62.05
2018-08-24T03:54:08.820Z,63.08
2018-08-24T03:56:38.417Z,63.72
2018-08-24T03:59:07.951Z,64.83
2018-08-24T04:01:37.121Z,64.09
2018-08-24T04:04:06.667Z,63.51
2018-08-24T04:06:36.199Z,63.37
2018-08-24T04:09:06.286Z,62.90
2018-08-24T04:11:35.740Z,62.99
2018-08-24T04:14:05.100Z,63.50
2018-08-24T04:16:38.632Z,63.15
2018-08-24T04:19:12.168Z,63.24
2018-08-24T04:21:41.747Z,62.66
2018-08-24T04:24:11.216Z,62.23
2018-08-24T04:26:40.899Z,62.29
2018-08-24T04:29:10.134Z,61.85
2018-08-24T04:31:39.634Z,60.85
2018-08-24T04:34:09.715Z,60.56
2018-08-24T04:36:39.222Z,60.54
2018-08-24T04:39:10.757Z,60.34
2018-08-24T04:41:40.745Z,61.13
2018-08-24T04:44:10.813Z,61.19
2018-08-24T04:46:39.918Z,60.78
2018-08-24T04:49:09.107Z,60.60
2018-08-24T04:51:38.090Z,60.64
2018-08-24T04:54:07.114Z,60.40
2018-08-24T04:56:36.191Z,60.64
2018-08-24T04:59:05.194Z,60.43
2018-08-24T05:01:34.280Z,60.53
2018-08-24T05:04:03.275Z,60.69
2018-08-24T05:06:32.375Z,59.59
2018-08-24T05:09:01.330Z,59.53
2018-08-24T05:11:30.310Z,58.91
2018-08-24T05:13:59.310Z,59.40
2018-08-24T05:16:28.358Z,59.18
2018-08-24T05:18:57.332Z,59.98
2018-08-24T05:21:26.471Z,59.03
2018-08-24T05:23:55.536Z,59.07
2018-08-24T05:26:24.646Z,58.59
2018-08-24T05:28:53.628Z,57.96
2018-08-24T05:31:22.610Z,58.27
2018-08-24T05:33:51.629Z,57.98
2018-08-24T05:36:20.653Z,57.41
2018-08-24T05:38:49.705Z,58.47
2018-08-24T05:41:18.742Z,59.01
2018-08-24T05:43:47.689Z,57.77
2018-08-24T05:46:16.683Z,55.69
2018-08-24T05:48:45.715Z,56.05
2018-08-24T05:51:15.221Z,56.40
2018-08-24T05:53:45.578Z,56.40
2018-08-24T05:56:14.971Z,56.77
2018-08-24T05:58:44.269Z,56.46
2018-08-24T06:01:13.613Z,57.80
2018-08-24T06:03:43.069Z,53.64
2018-08-24T06:06:12.438Z,54.18
2018-08-24T06:08:41.746Z,53.53
2018-08-24T06:11:11.037Z,53.46
2018-08-24T06:13:39.982Z,54.29
2018-08-24T06:16:09.354Z,54.78
2018-08-24T06:18:38.441Z,53.12
2018-08-24T06:21:07.484Z,52.97
2018-08-24T06:23:36.497Z,53.13
2018-08-24T06:26:05.544Z,52.21
2018-08-24T06:28:34.547Z,52.35
2018-08-24T06:31:03.652Z,50.78
2018-08-24T06:33:32.776Z,49.72
2018-08-24T06:36:01.787Z,49.77
2018-08-24T06:38:30.792Z,49.91
2018-08-24T06:40:59.802Z,50.97
2018-08-24T06:43:28.843Z,52.91
2018-08-24T06:45:57.871Z,53.16
2018-08-24T06:48:26.882Z,51.49
2018-08-24T06:50:55.950Z,52.79
2018-08-24T06:53:25.149Z,52.77
2018-08-24T06:55:54.098Z,51.92
2018-08-24T06:58:23.116Z,51.48
2018-08-24T07:00:52.170Z,51.17
2018-08-24T07:03:21.414Z,50.39
2018-08-24T07:05:50.577Z,50.22
2018-08-24T07:08:19.786Z,51.92
2018-08-24T07:10:48.863Z,51.62
2018-08-24T07:13:17.912Z,52.90
2018-08-24T07:15:46.857Z,51.36
2018-08-24T07:18:15.979Z,50.15
2018-08-24T07:20:45.074Z,51.36
2018-08-24T07:23:14.045Z,50.27
2018-08-24T07:25:42.976Z,50.88
2018-08-24T07:28:12.027Z,51.12
2018-08-24T07:30:41.067Z,52.74
2018-08-24T07:33:10.196Z,51.46
2018-08-24T07:35:39.185Z,49.53
2018-08-24T07:38:08.266Z,51.66
2018-08-24T07:40:37.253Z,51.50
2018-08-24T07:43:06.323Z,54.60
2018-08-24T07:45:35.326Z,56.01
2018-08-24T07:48:04.381Z,55.17
2018-08-24T07:50:33.402Z,54.45
2018-08-24T07:53:02.553Z,54.14
2018-08-24T07:55:31.617Z,49.93
2018-08-24T07:58:00.723Z,49.71
2018-08-24T08:00:29.797Z,49.55
2018-08-24T08:02:58.806Z,48.89
2018-08-24T08:05:27.934Z,53.44
2018-08-24T08:07:56.976Z,52.60
2018-08-24T08:10:30.388Z,52.46
2018-08-24T08:12:59.669Z,53.77
2018-08-24T08:15:28.616Z,55.56
2018-08-24T08:17:57.709Z,61.46
2018-08-24T08:20:26.684Z,59.87
2018-08-24T08:22:55.773Z,58.38
2018-08-24T08:25:24.876Z,59.09
2018-08-24T08:27:54.164Z,59.30
2018-08-24T08:30:23.468Z,61.35
2018-08-24T08:32:53.195Z,61.70
2018-08-24T08:35:23.006Z,62.52
2018-08-24T08:37:52.161Z,62.40
2018-08-24T08:40:21.661Z,61.11
2018-08-24T08:42:51.127Z,65.06
2018-08-24T08:45:20.080Z,62.38
2018-08-24T08:47:49.086Z,60.37
2018-08-24T08:50:18.201Z,59.94
2018-08-24T08:52:47.330Z,60.66
2018-08-24T08:55:16.314Z,60.52
2018-08-24T08:57:45.470Z,60.84
2018-08-24T09:00:14.461Z,61.96
2018-08-24T09:02:43.535Z,60.83
2018-08-24T09:05:12.561Z,62.87
2018-08-24T09:07:41.630Z,62.10
2018-08-24T09:10:10.646Z,59.40
2018-08-24T09:12:39.752Z,60.50
2018-08-24T09:15:08.857Z,60.70
2018-08-24T09:17:42.996Z,59.45
2018-08-24T09:20:17.068Z,60.65
2018-08-24T09:22:51.160Z,61.67
2018-08-24T09:25:25.263Z,59.82
2018-08-24T09:27:59.276Z,60.69
2018-08-24T09:30:31.849Z,61.16
2018-08-24T09:33:00.987Z,59.00
2018-08-24T09:35:29.854Z,57.89
2018-08-24T09:37:58.980Z,57.23
2018-08-24T09:40:33.123Z,57.70
2018-08-24T09:43:06.291Z,58.74
2018-08-24T09:45:35.371Z,57.56
2018-08-24T09:48:09.625Z,57.64
2018-08-24T09:50:43.781Z,56.52
2018-08-24T09:53:17.804Z,56.79
2018-08-24T09:55:46.792Z,56.87
2018-08-24T09:58:15.769Z,57.74
2018-08-24T10:00:50.082Z,57.72
2018-08-24T10:03:24.325Z,55.38
2018-08-24T10:05:58.372Z,54.99
2018-08-24T10:08:30.554Z,55.09
2018-08-24T10:10:59.673Z,53.13
2018-08-24T10:13:28.656Z,51.03
2018-08-24T10:15:57.585Z,52.38
2018-08-24T10:18:26.557Z,51.39
2018-08-24T10:20:55.666Z,52.44
2018-08-24T10:23:24.664Z,55.15
2018-08-24T10:25:53.788Z,55.88
2018-08-24T10:28:22.782Z,54.10
2018-08-24T10:30:51.774Z,53.21
2018-08-24T10:33:20.701Z,53.72
2018-08-24T10:35:49.818Z,51.12
2018-08-24T10:38:18.821Z,52.56
2018-08-24T10:40:47.944Z,52.30
2018-08-24T10:43:17.149Z,51.97
2018-08-24T10:45:46.231Z,53.22
2018-08-24T10:48:15.287Z,53.63
2018-08-24T10:50:44.360Z,54.92
2018-08-24T10:53:13.366Z,52.91
2018-08-24T10:55:42.373Z,52.93
2018-08-24T10:58:11.302Z,49.15
2018-08-24T11:00:40.285Z,43.51
2018-08-24T11:03:09.257Z,39.75
2018-08-24T11:05:38.352Z,39.74
2018-08-24T11:08:07.377Z,41.54
2018-08-24T11:10:36.495Z,41.78
2018-08-24T11:13:05.432Z,41.56
2018-08-24T11:15:35.821Z,39.92
2018-08-24T11:18:10.605Z,37.87
2018-08-24T11:20:42.250Z,38.52
2018-08-24T11:23:11.527Z,37.81
2018-08-24T11:25:40.535Z,36.49
2018-08-24T11:28:09.600Z,33.38
2018-08-24T11:30:38.669Z,31.89
2018-08-24T11:33:07.720Z,33.11
2018-08-24T11:35:36.713Z,33.33
2018-08-24T11:38:05.742Z,32.05
2018-08-24T11:40:35.102Z,30.01
2018-08-24T11:43:04.398Z,31.27
2018-08-24T11:45:33.936Z,30.38
2018-08-24T11:48:03.218Z,29.75
2018-08-24T11:50:32.500Z,31.01
2018-08-24T11:53:01.432Z,31.94
2018-08-24T11:55:30.727Z,31.14
2018-08-24T11:58:00.106Z,31.58
2018-08-24T12:00:30.574Z,28.29
2018-08-24T12:02:59.849Z,27.80
2018-08-24T12:05:28.873Z,28.10
2018-08-24T12:07:58.300Z,29.66
2018-08-24T12:10:27.232Z,29.70
2018-08-24T12:12:56.965Z,29.92
2018-08-24T12:15:26.235Z,30.83
2018-08-24T12:17:56.017Z,30.46
2018-08-24T12:20:25.244Z,29.26
2018-08-24T12:22:54.657Z,29.25
2018-08-24T12:25:24.100Z,29.20
2018-08-24T12:27:53.483Z,28.25
2018-08-24T12:30:22.435Z,28.20
2018-08-24T12:32:51.471Z,27.82
2018-08-24T12:35:20.552Z,26.76
2018-08-24T12:37:49.947Z,27.24
2018-08-24T12:40:19.326Z,26.54
2018-08-24T12:42:48.355Z,27.87
2018-08-24T12:45:17.391Z,29.05
2018-08-24T12:47:46.426Z,29.26
2018-08-24T12:50:15.392Z,28.47
2018-08-24T12:52:44.573Z,28.10
2018-08-24T12:55:13.514Z,26.68
2018-08-24T12:57:42.905Z,26.13
2018-08-24T13:00:11.882Z,25.41
2018-08-24T13:02:41.317Z,26.00
2018-08-24T13:05:10.582Z,25.37
2018-08-24T13:07:39.950Z,25.69
2018-08-24T13:10:08.959Z,26.27
2018-08-24T13:12:38.215Z,25.61
2018-08-24T13:15:07.557Z,25.80
2018-08-24T13:17:36.557Z,25.94
2018-08-24T13:20:05.714Z,25.92
2018-08-24T13:22:34.743Z,24.89
2018-08-24T13:25:03.741Z,25.41
2018-08-24T13:27:32.913Z,24.11
2018-08-24T13:30:01.830Z,24.60
2018-08-24T13:32:30.858Z,24.42
2018-08-24T13:34:59.885Z,24.23
2018-08-24T13:37:28.926Z,23.71
2018-08-24T13:39:57.850Z,23.74
2018-08-24T13:42:26.978Z,23.91
2018-08-24T13:44:56.235Z,24.10
2018-08-24T13:47:25.260Z,23.12
2018-08-24T13:49:54.505Z,23.25
2018-08-24T13:52:23.950Z,23.66
2018-08-24T13:54:53.276Z,24.02
2018-08-24T13:57:22.217Z,23.71
2018-08-24T13:59:51.300Z,24.14
2018-08-24T14:02:20.308Z,24.42
2018-08-24T14:04:49.301Z,24.43
2018-08-24T14:07:18.648Z,23.76
2018-08-24T14:09:47.621Z,23.93
2018-08-24T14:12:16.985Z,24.03
2018-08-24T14:14:45.993Z,23.55
2018-08-24T14:17:15.111Z,23.84
2018-08-24T14:19:44.057Z,24.50
2018-08-24T14:22:13.304Z,23.59
2018-08-24T14:24:42.666Z,23.62
2018-08-24T14:27:11.736Z,23.70
2018-08-24T14:29:40.753Z,23.03
2018-08-24T14:32:10.094Z,23.66
2018-08-24T14:34:39.099Z,24.39
2018-08-24T14:37:08.185Z,25.63
2018-08-24T14:39:37.415Z,26.37
2018-08-24T14:42:06.485Z,25.08
2018-08-24T14:44:35.780Z,24.95
2018-08-24T14:47:05.127Z,25.77
2018-08-24T14:49:34.407Z,25.43
2018-08-24T14:52:03.501Z,24.89
2018-08-24T14:54:32.455Z,25.85
2018-08-24T14:57:01.497Z,26.07
2018-08-24T14:59:30.471Z,26.70
2018-08-24T15:01:59.454Z,26.98
2018-08-24T15:04:28.429Z,27.32
2018-08-24T15:06:57.425Z,27.38
2018-08-24T15:09:26.358Z,27.20
2018-08-24T15:11:55.574Z,28.19
2018-08-24T15:14:24.556Z,28.31
2018-08-24T15:16:53.513Z,28.55
2018-08-24T15:19:22.525Z,28.68
2018-08-24T15:21:51.641Z,29.03
2018-08-24T15:24:20.702Z,28.25
2018-08-24T15:26:49.691Z,27.29
2018-08-24T15:29:18.808Z,27.39
2018-08-24T15:31:48.090Z,26.72
2018-08-24T15:34:17.645Z,26.51
2018-08-24T15:36:46.893Z,27.01
2018-08-24T15:39:16.298Z,27.34
2018-08-24T15:41:45.309Z,26.79
2018-08-24T15:44:14.600Z,26.84
2018-08-24T15:46:43.607Z,25.66
2018-08-24T15:49:12.687Z,24.58
2018-08-24T15:51:41.879Z,24.75
2018-08-24T15:54:11.348Z,24.37
2018-08-24T15:56:40.674Z,24.67
2018-08-24T15:59:10.126Z,23.52
2018-08-24T16:01:39.529Z,24.53
2018-08-24T16:04:08.808Z,24.55
2018-08-24T16:06:38.061Z,24.29
2018-08-24T16:09:09.305Z,24.41
2018-08-24T16:11:38.747Z,23.57
2018-08-24T16:14:07.969Z,23.97
2018-08-24T16:16:37.125Z,23.64
2018-08-24T16:19:06.542Z,24.14
2018-08-24T16:21:35.470Z,24.11
2018-08-24T16:24:04.609Z,23.84
2018-08-24T16:26:33.690Z,23.93
2018-08-24T16:29:03.009Z,23.60
2018-08-24T16:31:32.043Z,23.94
2018-08-24T16:34:01.130Z,24.17
2018-08-24T16:36:30.154Z,24.70
2018-08-24T16:38:59.566Z,25.38
2018-08-24T16:41:28.906Z,25.05
2018-08-24T16:43:58.215Z,24.49
2018-08-24T16:46:27.481Z,25.64
2018-08-24T16:48:56.849Z,25.68
2018-08-24T16:51:26.088Z,26.17
2018-08-24T16:53:55.458Z,25.89
2018-08-24T16:56:24.398Z,25.73
2018-08-24T16:58:53.653Z,26.49
2018-08-24T17:01:22.919Z,26.81
2018-08-24T17:03:52.398Z,27.66
2018-08-24T17:06:21.589Z,27.83
2018-08-24T17:08:50.640Z,27.66
2018-08-24T17:11:19.845Z,27.58
2018-08-24T17:13:49.206Z,27.17
2018-08-24T17:16:18.714Z,28.04
2018-08-24T17:18:47.934Z,27.49
2018-08-24T17:21:17.165Z,28.18
2018-08-24T17:23:46.357Z,29.77
2018-08-24T17:26:15.317Z,28.58
2018-08-24T17:28:44.680Z,29.73
2018-08-24T17:31:13.761Z,28.69
2018-08-24T17:33:43.247Z,29.00
2018-08-24T17:36:12.630Z,29.42
2018-08-24T17:38:42.318Z,29.64
2018-08-24T17:41:11.624Z,29.25
2018-08-24T17:43:42.797Z,29.91
2018-08-24T17:46:11.961Z,28.86
2018-08-24T17:48:41.271Z,29.26
2018-08-24T17:51:10.754Z,29.53
2018-08-24T17:53:40.077Z,29.20
2018-08-24T17:56:09.433Z,29.65
2018-08-24T17:58:38.678Z,29.51
2018-08-24T18:01:08.092Z,29.32
2018-08-24T18:03:37.301Z,29.53
2018-08-24T18:06:06.642Z,29.37
2018-08-24T18:08:36.001Z,29.60
2018-08-24T18:11:05.358Z,29.92
2018-08-24T18:13:35.096Z,29.50
2018-08-24T18:16:04.359Z,29.75
2018-08-24T18:18:33.735Z,29.22
2018-08-24T18:21:03.152Z,29.64
2018-08-24T18:23:32.391Z,29.99
2018-08-24T18:26:01.723Z,30.40
2018-08-24T18:28:30.997Z,30.20
2018-08-24T18:31:00.501Z,30.52
2018-08-24T18:33:29.729Z,30.66
2018-08-24T18:35:59.130Z,31.28
2018-08-24T18:38:28.249Z,31.09
2018-08-24T18:40:57.493Z,30.63
2018-08-24T18:43:27.598Z,30.93
2018-08-24T18:45:56.947Z,30.66
2018-08-24T18:48:26.001Z,30.31
2018-08-24T18:50:55.067Z,30.63
2018-08-24T18:53:23.994Z,30.10
2018-08-24T18:55:52.979Z,30.68
2018-08-24T18:58:21.909Z,31.02
2018-08-24T19:00:50.999Z,31.01
2018-08-24T19:03:20.279Z,31.00
2018-08-24T19:05:49.682Z,30.67
2018-08-24T19:08:18.942Z,30.33
2018-08-24T19:10:53.610Z,30.70
2018-08-24T19:13:22.932Z,30.75
2018-08-24T19:15:52.537Z,31.24
2018-08-24T19:19:27.653Z,30.86
2018-08-24T19:22:01.388Z,30.79
2018-08-24T19:24:30.835Z,30.74
2018-08-24T19:27:00.180Z,30.85
2018-08-24T19:29:34.387Z,31.96
2018-08-24T19:32:03.777Z,31.47
2018-08-24T19:34:33.121Z,30.89
2018-08-24T19:37:02.392Z,31.39
2018-08-24T19:39:31.922Z,30.88
2018-08-24T19:42:06.320Z,31.30
2018-08-24T19:44:35.652Z,31.81
2018-08-24T19:47:05.009Z,31.15
2018-08-24T19:49:37.710Z,31.27
2018-08-24T19:52:07.338Z,31.25
2018-08-24T19:54:36.620Z,31.55
2018-08-24T19:57:10.826Z,31.58
2018-08-24T19:59:40.134Z,31.99
2018-08-24T20:02:09.118Z,31.32
2018-08-24T20:04:38.215Z,31.25
2018-08-24T20:07:12.737Z,31.99
2018-08-24T20:09:46.965Z,31.79
2018-08-24T20:12:16.260Z,32.05
2018-08-24T20:14:50.700Z,31.68
2018-08-24T20:17:24.998Z,30.81
2018-08-24T20:19:54.273Z,31.14
2018-08-24T20:22:23.625Z,31.20
2018-08-24T20:24:52.906Z,30.84
2018-08-24T20:27:22.210Z,30.61
2018-08-24T20:29:51.394Z,30.34
2018-08-24T20:32:20.734Z,30.30
2018-08-24T20:34:50.061Z,29.84
2018-08-24T20:37:19.416Z,30.27
2018-08-24T20:39:48.720Z,30.09
2018-08-24T20:42:18.031Z,30.08
2018-08-24T20:44:47.478Z,29.66
2018-08-24T20:47:16.861Z,30.20
2018-08-24T20:49:46.092Z,30.45
2018-08-24T20:52:15.317Z,30.35
2018-08-24T20:54:44.331Z,30.11
2018-08-24T20:57:13.390Z,30.01
2018-08-24T20:59:42.698Z,29.46
2018-08-24T21:02:14.118Z,29.67
2018-08-24T21:04:43.338Z,29.84
2018-08-24T21:07:12.761Z,29.71
2018-08-24T21:09:43.092Z,30.88
2018-08-24T21:12:12.354Z,29.74
2018-08-24T21:14:41.352Z,30.29
2018-08-24T21:17:10.410Z,30.09
2018-08-24T21:19:39.559Z,29.60
2018-08-24T21:22:08.866Z,30.08
2018-08-24T21:24:38.109Z,30.54
2018-08-24T21:27:07.473Z,30.84
2018-08-24T21:29:36.873Z,31.17
2018-08-24T21:32:06.183Z,30.97
2018-08-24T21:34:35.597Z,30.43
2018-08-24T21:37:05.010Z,30.94
2018-08-24T21:39:34.340Z,31.82
2018-08-24T21:42:03.751Z,31.83
2018-08-24T21:44:32.996Z,32.77
2018-08-24T21:47:02.422Z,31.86
2018-08-24T21:49:31.657Z,32.92
2018-08-24T21:52:01.081Z,31.90
2018-08-24T21:54:30.379Z,32.00
2018-08-24T21:56:59.811Z,32.50
2018-08-24T21:59:28.884Z,32.87
2018-08-24T22:01:58.590Z,33.11
2018-08-24T22:04:28.189Z,34.22
2018-08-24T22:06:57.482Z,33.89
2018-08-24T22:09:26.921Z,33.88
2018-08-24T22:11:56.197Z,33.18
2018-08-24T22:14:25.572Z,32.46
2018-08-24T22:16:54.959Z,31.93
2018-08-24T22:19:24.429Z,32.06
2018-08-24T22:21:53.790Z,31.75
2018-08-24T22:24:23.116Z,32.17
2018-08-24T22:26:52.429Z,31.70
2018-08-24T22:29:21.777Z,32.07
2018-08-24T22:31:51.006Z,32.11
2018-08-24T22:34:20.326Z,31.95
2018-08-24T22:36:49.298Z,32.46
2018-08-24T22:39:18.523Z,32.28
2018-08-24T22:41:47.849Z,32.15
2018-08-24T22:44:17.047Z,32.45
2018-08-24T22:46:46.398Z,31.90
2018-08-24T22:49:15.646Z,32.26
2018-08-24T22:51:44.890Z,32.24
2018-08-24T22:54:14.101Z,33.10
2018-08-24T22:56:43.668Z,32.29
2018-08-24T22:59:12.943Z,32.67
2018-08-24T23:01:42.186Z,32.63
2018-08-24T23:04:11.413Z,32.75
2018-08-24T23:06:40.632Z,32.73
2018-08-24T23:09:11.294Z,33.26
2018-08-24T23:11:40.514Z,33.07
2018-08-24T23:14:09.900Z,33.27
2018-08-24T23:16:39.160Z,33.33
2018-08-24T23:19:08.453Z,33.57
2018-08-24T23:21:37.846Z,33.86
2018-08-24T23:24:07.230Z,34.14
2018-08-24T23:26:36.388Z,34.82
2018-08-24T23:29:05.986Z,34.93
2018-08-24T23:31:35.255Z,34.33
2018-08-24T23:34:04.637Z,35.02
2018-08-24T23:36:34.050Z,34.31
2018-08-24T23:39:03.569Z,34.19
2018-08-24T23:41:32.816Z,34.09
2018-08-24T23:44:02.176Z,34.89
2018-08-24T23:46:31.551Z,35.57
2018-08-24T23:49:00.887Z,35.13
2018-08-24T23:51:30.142Z,35.12
2018-08-24T23:53:59.577Z,35.33
2018-08-24T23:56:29.141Z,35.95
2018-08-24T23:58:58.592Z,36.83
